sensor_id;sensor_type;location;lat;lon;timestamp;P1;durP1;ratioP1;P2;durP2;ratioP2
58196;SDS011;43999;51.660;5.616;2023-04-25T00:01:09;12.23;;;7.45;;
58196;SDS011;43999;51.660;5.616;2023-04-25T00:03:40;9.63;;;5.65;;
58196;SDS011;43999;51.660;5.616;2023-04-25T00:06:09;11.75;;;5.35;;
58196;SDS011;43999;51.660;5.616;2023-04-25T00:08:36;9.70;;;5.72;;
58196;SDS011;43999;51.660;5.616;2023-04-25T00:11:04;11.18;;;5.28;;
58196;SDS011;43999;51.660;5.616;2023-04-25T00:13:31;10.65;;;5.93;;
58196;SDS011;43999;51.660;5.616;2023-04-25T00:16:01;11.63;;;5.65;;
58196;SDS011;43999;51.660;5.616;2023-04-25T00:18:30;10.10;;;6.28;;
58196;SDS011;43999;51.660;5.616;2023-04-25T00:20:59;11.75;;;6.47;;
58196;SDS011;43999;51.660;5.616;2023-04-25T00:23:28;11.57;;;7.13;;
58196;SDS011;43999;51.660;5.616;2023-04-25T00:25:55;13.25;;;5.53;;
58196;SDS011;43999;51.660;5.616;2023-04-25T00:28:22;10.50;;;6.22;;
58196;SDS011;43999;51.660;5.616;2023-04-25T00:30:51;13.05;;;6.78;;
58196;SDS011;43999;51.660;5.616;2023-04-25T00:33:19;14.20;;;6.85;;
58196;SDS011;43999;51.660;5.616;2023-04-25T00:35:48;10.88;;;6.38;;
58196;SDS011;43999;51.660;5.616;2023-04-25T00:38:15;17.67;;;6.63;;
58196;SDS011;43999;51.660;5.616;2023-04-25T00:40:43;13.90;;;7.07;;
58196;SDS011;43999;51.660;5.616;2023-04-25T00:43:10;11.15;;;6.55;;
58196;SDS011;43999;51.660;5.616;2023-04-25T00:45:40;10.93;;;6.35;;
58196;SDS011;43999;51.660;5.616;2023-04-25T00:48:12;11.20;;;5.50;;
58196;SDS011;43999;51.660;5.616;2023-04-25T00:50:41;10.43;;;7.10;;
58196;SDS011;43999;51.660;5.616;2023-04-25T00:53:19;11.45;;;6.35;;
58196;SDS011;43999;51.660;5.616;2023-04-25T00:55:53;10.05;;;6.50;;
58196;SDS011;43999;51.660;5.616;2023-04-25T00:58:21;16.63;;;6.38;;
58196;SDS011;43999;51.660;5.616;2023-04-25T01:00:50;15.40;;;7.15;;
58196;SDS011;43999;51.660;5.616;2023-04-25T01:03:39;15.98;;;6.38;;
58196;SDS011;43999;51.660;5.616;2023-04-25T01:06:08;15.57;;;6.25;;
58196;SDS011;43999;51.660;5.616;2023-04-25T01:08:37;12.48;;;7.15;;
58196;SDS011;43999;51.660;5.616;2023-04-25T01:11:05;11.57;;;6.85;;
58196;SDS011;43999;51.660;5.616;2023-04-25T01:13:33;9.18;;;5.18;;
58196;SDS011;43999;51.660;5.616;2023-04-25T01:16:03;12.75;;;6.07;;
58196;SDS011;43999;51.660;5.616;2023-04-25T01:18:32;16.85;;;7.00;;
58196;SDS011;43999;51.660;5.616;2023-04-25T01:21:09;12.60;;;6.18;;
58196;SDS011;43999;51.660;5.616;2023-04-25T01:23:42;9.38;;;5.97;;
58196;SDS011;43999;51.660;5.616;2023-04-25T01:26:11;17.23;;;6.38;;
58196;SDS011;43999;51.660;5.616;2023-04-25T01:28:39;11.85;;;7.47;;
58196;SDS011;43999;51.660;5.616;2023-04-25T01:31:09;19.58;;;8.07;;
58196;SDS011;43999;51.660;5.616;2023-04-25T01:33:37;10.68;;;6.80;;
58196;SDS011;43999;51.660;5.616;2023-04-25T01:36:07;11.40;;;6.38;;
58196;SDS011;43999;51.660;5.616;2023-04-25T01:38:41;15.73;;;8.13;;
58196;SDS011;43999;51.660;5.616;2023-04-25T01:41:10;14.57;;;7.32;;
58196;SDS011;43999;51.660;5.616;2023-04-25T01:43:45;11.70;;;7.13;;
58196;SDS011;43999;51.660;5.616;2023-04-25T01:46:13;16.75;;;6.90;;
58196;SDS011;43999;51.660;5.616;2023-04-25T01:48:41;19.58;;;7.78;;
58196;SDS011;43999;51.660;5.616;2023-04-25T01:51:09;13.85;;;8.13;;
58196;SDS011;43999;51.660;5.616;2023-04-25T01:53:38;11.60;;;6.38;;
58196;SDS011;43999;51.660;5.616;2023-04-25T01:56:06;10.88;;;5.93;;
58196;SDS011;43999;51.660;5.616;2023-04-25T01:58:35;9.70;;;6.78;;
58196;SDS011;43999;51.660;5.616;2023-04-25T02:01:03;15.73;;;7.05;;
58196;SDS011;43999;51.660;5.616;2023-04-25T02:03:43;13.52;;;6.97;;
58196;SDS011;43999;51.660;5.616;2023-04-25T02:06:24;19.83;;;7.32;;
58196;SDS011;43999;51.660;5.616;2023-04-25T02:08:55;14.75;;;7.03;;
58196;SDS011;43999;51.660;5.616;2023-04-25T02:11:24;14.43;;;8.55;;
58196;SDS011;43999;51.660;5.616;2023-04-25T02:14:14;9.95;;;6.97;;
58196;SDS011;43999;51.660;5.616;2023-04-25T02:17:04;15.10;;;7.22;;
58196;SDS011;43999;51.660;5.616;2023-04-25T02:19:32;12.88;;;6.78;;
58196;SDS011;43999;51.660;5.616;2023-04-25T02:22:08;15.07;;;7.65;;
58196;SDS011;43999;51.660;5.616;2023-04-25T02:24:36;19.77;;;8.02;;
58196;SDS011;43999;51.660;5.616;2023-04-25T02:27:05;13.75;;;6.95;;
58196;SDS011;43999;51.660;5.616;2023-04-25T02:29:34;18.95;;;7.90;;
58196;SDS011;43999;51.660;5.616;2023-04-25T02:32:02;13.80;;;8.23;;
58196;SDS011;43999;51.660;5.616;2023-04-25T02:34:30;12.80;;;6.95;;
58196;SDS011;43999;51.660;5.616;2023-04-25T02:36:59;14.68;;;7.63;;
58196;SDS011;43999;51.660;5.616;2023-04-25T02:39:27;13.65;;;7.65;;
58196;SDS011;43999;51.660;5.616;2023-04-25T02:41:54;13.93;;;6.97;;
58196;SDS011;43999;51.660;5.616;2023-04-25T02:44:23;13.68;;;7.53;;
58196;SDS011;43999;51.660;5.616;2023-04-25T02:46:50;15.13;;;9.55;;
58196;SDS011;43999;51.660;5.616;2023-04-25T02:49:18;15.13;;;8.40;;
58196;SDS011;43999;51.660;5.616;2023-04-25T02:51:45;16.08;;;8.30;;
58196;SDS011;43999;51.660;5.616;2023-04-25T02:54:12;16.52;;;8.60;;
58196;SDS011;43999;51.660;5.616;2023-04-25T02:56:43;15.50;;;7.70;;
58196;SDS011;43999;51.660;5.616;2023-04-25T02:59:17;12.75;;;8.15;;
58196;SDS011;43999;51.660;5.616;2023-04-25T03:01:46;20.50;;;8.52;;
58196;SDS011;43999;51.660;5.616;2023-04-25T03:04:13;13.73;;;8.10;;
58196;SDS011;43999;51.660;5.616;2023-04-25T03:06:41;18.38;;;8.45;;
58196;SDS011;43999;51.660;5.616;2023-04-25T03:09:08;15.43;;;9.00;;
58196;SDS011;43999;51.660;5.616;2023-04-25T03:11:41;17.70;;;8.48;;
58196;SDS011;43999;51.660;5.616;2023-04-25T03:14:08;16.95;;;9.38;;
58196;SDS011;43999;51.660;5.616;2023-04-25T03:16:38;12.57;;;7.97;;
58196;SDS011;43999;51.660;5.616;2023-04-25T03:19:08;19.15;;;9.40;;
58196;SDS011;43999;51.660;5.616;2023-04-25T03:21:36;19.33;;;9.07;;
58196;SDS011;43999;51.660;5.616;2023-04-25T03:24:04;15.50;;;8.05;;
58196;SDS011;43999;51.660;5.616;2023-04-25T03:26:32;14.30;;;8.73;;
58196;SDS011;43999;51.660;5.616;2023-04-25T03:28:59;17.90;;;7.70;;
58196;SDS011;43999;51.660;5.616;2023-04-25T03:31:29;19.08;;;7.97;;
58196;SDS011;43999;51.660;5.616;2023-04-25T03:33:58;18.27;;;7.65;;
58196;SDS011;43999;51.660;5.616;2023-04-25T03:36:25;13.75;;;8.05;;
58196;SDS011;43999;51.660;5.616;2023-04-25T03:38:52;17.33;;;7.78;;
58196;SDS011;43999;51.660;5.616;2023-04-25T03:41:21;18.77;;;8.68;;
58196;SDS011;43999;51.660;5.616;2023-04-25T03:43:56;17.40;;;8.27;;
58196;SDS011;43999;51.660;5.616;2023-04-25T03:46:23;12.45;;;7.95;;
58196;SDS011;43999;51.660;5.616;2023-04-25T03:48:51;16.88;;;8.40;;
58196;SDS011;43999;51.660;5.616;2023-04-25T03:51:23;17.63;;;8.75;;
58196;SDS011;43999;51.660;5.616;2023-04-25T03:53:50;14.27;;;8.50;;
58196;SDS011;43999;51.660;5.616;2023-04-25T03:56:19;23.75;;;8.30;;
58196;SDS011;43999;51.660;5.616;2023-04-25T03:58:55;17.20;;;7.60;;
58196;SDS011;43999;51.660;5.616;2023-04-25T04:01:25;17.40;;;8.02;;
58196;SDS011;43999;51.660;5.616;2023-04-25T04:03:52;13.48;;;8.15;;
58196;SDS011;43999;51.660;5.616;2023-04-25T04:06:22;18.70;;;9.20;;
58196;SDS011;43999;51.660;5.616;2023-04-25T04:08:56;15.63;;;8.63;;
58196;SDS011;43999;51.660;5.616;2023-04-25T04:11:23;18.35;;;8.98;;
58196;SDS011;43999;51.660;5.616;2023-04-25T04:13:51;21.33;;;9.95;;
58196;SDS011;43999;51.660;5.616;2023-04-25T04:16:18;27.90;;;10.05;;
58196;SDS011;43999;51.660;5.616;2023-04-25T04:18:47;16.80;;;9.00;;
58196;SDS011;43999;51.660;5.616;2023-04-25T04:21:17;19.02;;;9.38;;
58196;SDS011;43999;51.660;5.616;2023-04-25T04:23:53;19.20;;;10.15;;
58196;SDS011;43999;51.660;5.616;2023-04-25T04:26:21;21.70;;;10.43;;
58196;SDS011;43999;51.660;5.616;2023-04-25T04:29:05;17.45;;;8.43;;
58196;SDS011;43999;51.660;5.616;2023-04-25T04:31:40;17.65;;;9.45;;
58196;SDS011;43999;51.660;5.616;2023-04-25T04:34:10;15.38;;;7.93;;
58196;SDS011;43999;51.660;5.616;2023-04-25T04:36:38;16.92;;;8.65;;
58196;SDS011;43999;51.660;5.616;2023-04-25T04:39:06;17.40;;;9.25;;
58196;SDS011;43999;51.660;5.616;2023-04-25T04:41:48;16.70;;;8.90;;
58196;SDS011;43999;51.660;5.616;2023-04-25T04:44:55;20.38;;;10.48;;
58196;SDS011;43999;51.660;5.616;2023-04-25T04:47:38;13.20;;;8.07;;
58196;SDS011;43999;51.660;5.616;2023-04-25T04:50:44;19.65;;;10.27;;
58196;SDS011;43999;51.660;5.616;2023-04-25T04:53:24;27.45;;;9.77;;
58196;SDS011;43999;51.660;5.616;2023-04-25T04:56:12;17.90;;;10.13;;
58196;SDS011;43999;51.660;5.616;2023-04-25T04:59:11;15.80;;;7.72;;
58196;SDS011;43999;51.660;5.616;2023-04-25T05:04:46;14.35;;;7.47;;
58196;SDS011;43999;51.660;5.616;2023-04-25T05:07:26;13.32;;;7.53;;
58196;SDS011;43999;51.660;5.616;2023-04-25T05:10:22;15.30;;;7.53;;
58196;SDS011;43999;51.660;5.616;2023-04-25T05:13:16;16.75;;;9.27;;
58196;SDS011;43999;51.660;5.616;2023-04-25T05:16:03;13.15;;;7.72;;
58196;SDS011;43999;51.660;5.616;2023-04-25T05:18:48;18.92;;;9.15;;
58196;SDS011;43999;51.660;5.616;2023-04-25T05:21:26;14.50;;;8.55;;
58196;SDS011;43999;51.660;5.616;2023-04-25T05:24:08;12.02;;;6.95;;
58196;SDS011;43999;51.660;5.616;2023-04-25T05:26:56;14.88;;;7.45;;
58196;SDS011;43999;51.660;5.616;2023-04-25T05:32:35;17.23;;;7.20;;
58196;SDS011;43999;51.660;5.616;2023-04-25T05:35:05;12.88;;;7.05;;
58196;SDS011;43999;51.660;5.616;2023-04-25T05:37:42;21.40;;;9.10;;
58196;SDS011;43999;51.660;5.616;2023-04-25T05:40:13;14.15;;;6.85;;
58196;SDS011;43999;51.660;5.616;2023-04-25T05:43:05;14.60;;;6.75;;
58196;SDS011;43999;51.660;5.616;2023-04-25T05:45:47;11.50;;;7.88;;
58196;SDS011;43999;51.660;5.616;2023-04-25T05:48:47;13.73;;;8.13;;
58196;SDS011;43999;51.660;5.616;2023-04-25T05:51:58;15.80;;;7.05;;
58196;SDS011;43999;51.660;5.616;2023-04-25T05:54:27;13.57;;;5.50;;
58196;SDS011;43999;51.660;5.616;2023-04-25T05:56:58;14.40;;;5.82;;
58196;SDS011;43999;51.660;5.616;2023-04-25T05:59:29;14.50;;;7.93;;
58196;SDS011;43999;51.660;5.616;2023-04-25T06:02:05;10.90;;;5.85;;
58196;SDS011;43999;51.660;5.616;2023-04-25T06:04:34;11.43;;;6.25;;
58196;SDS011;43999;51.660;5.616;2023-04-25T06:07:02;16.73;;;6.55;;
58196;SDS011;43999;51.660;5.616;2023-04-25T06:09:31;9.18;;;5.50;;
58196;SDS011;43999;51.660;5.616;2023-04-25T06:12:00;13.32;;;7.20;;
58196;SDS011;43999;51.660;5.616;2023-04-25T06:14:29;13.95;;;5.88;;
58196;SDS011;43999;51.660;5.616;2023-04-25T06:16:59;19.73;;;6.68;;
58196;SDS011;43999;51.660;5.616;2023-04-25T06:19:37;14.07;;;7.00;;
58196;SDS011;43999;51.660;5.616;2023-04-25T06:22:09;9.85;;;5.43;;
58196;SDS011;43999;51.660;5.616;2023-04-25T06:24:42;12.65;;;5.40;;
58196;SDS011;43999;51.660;5.616;2023-04-25T06:27:09;11.05;;;5.68;;
58196;SDS011;43999;51.660;5.616;2023-04-25T06:29:38;12.18;;;5.63;;
58196;SDS011;43999;51.660;5.616;2023-04-25T06:32:07;14.07;;;6.53;;
58196;SDS011;43999;51.660;5.616;2023-04-25T06:34:35;9.80;;;4.95;;
58196;SDS011;43999;51.660;5.616;2023-04-25T06:37:12;7.65;;;5.50;;
58196;SDS011;43999;51.660;5.616;2023-04-25T06:39:41;10.48;;;5.60;;
58196;SDS011;43999;51.660;5.616;2023-04-25T06:42:10;10.57;;;5.22;;
58196;SDS011;43999;51.660;5.616;2023-04-25T06:44:45;9.18;;;5.22;;
58196;SDS011;43999;51.660;5.616;2023-04-25T06:47:12;8.20;;;5.32;;
58196;SDS011;43999;51.660;5.616;2023-04-25T06:49:42;7.05;;;4.80;;
58196;SDS011;43999;51.660;5.616;2023-04-25T06:52:10;8.13;;;4.80;;
58196;SDS011;43999;51.660;5.616;2023-04-25T06:54:41;14.27;;;9.82;;
58196;SDS011;43999;51.660;5.616;2023-04-25T06:57:29;8.18;;;4.20;;
58196;SDS011;43999;51.660;5.616;2023-04-25T07:00:17;10.25;;;4.30;;
58196;SDS011;43999;51.660;5.616;2023-04-25T07:02:47;7.30;;;4.30;;
58196;SDS011;43999;51.660;5.616;2023-04-25T07:05:15;11.45;;;4.38;;
58196;SDS011;43999;51.660;5.616;2023-04-25T07:07:46;10.30;;;4.57;;
58196;SDS011;43999;51.660;5.616;2023-04-25T07:10:13;8.55;;;5.28;;
58196;SDS011;43999;51.660;5.616;2023-04-25T07:12:41;8.15;;;5.03;;
58196;SDS011;43999;51.660;5.616;2023-04-25T07:15:16;8.90;;;4.32;;
58196;SDS011;43999;51.660;5.616;2023-04-25T07:17:46;8.32;;;5.30;;
58196;SDS011;43999;51.660;5.616;2023-04-25T07:20:16;9.38;;;4.57;;
58196;SDS011;43999;51.660;5.616;2023-04-25T07:22:43;11.60;;;4.72;;
58196;SDS011;43999;51.660;5.616;2023-04-25T07:25:12;7.82;;;4.75;;
58196;SDS011;43999;51.660;5.616;2023-04-25T07:27:40;8.30;;;5.82;;
58196;SDS011;43999;51.660;5.616;2023-04-25T07:30:15;10.40;;;4.72;;
58196;SDS011;43999;51.660;5.616;2023-04-25T07:32:42;12.85;;;6.20;;
58196;SDS011;43999;51.660;5.616;2023-04-25T07:35:15;6.75;;;4.45;;
58196;SDS011;43999;51.660;5.616;2023-04-25T07:37:44;8.70;;;4.05;;
58196;SDS011;43999;51.660;5.616;2023-04-25T07:40:17;8.82;;;4.70;;
58196;SDS011;43999;51.660;5.616;2023-04-25T07:42:49;12.15;;;4.72;;
58196;SDS011;43999;51.660;5.616;2023-04-25T07:45:23;6.68;;;3.53;;
58196;SDS011;43999;51.660;5.616;2023-04-25T07:47:52;6.40;;;3.67;;
58196;SDS011;43999;51.660;5.616;2023-04-25T07:50:24;9.77;;;3.53;;
58196;SDS011;43999;51.660;5.616;2023-04-25T07:52:52;10.50;;;3.22;;
58196;SDS011;43999;51.660;5.616;2023-04-25T07:55:25;7.95;;;3.40;;
58196;SDS011;43999;51.660;5.616;2023-04-25T07:58:11;8.50;;;3.17;;
58196;SDS011;43999;51.660;5.616;2023-04-25T08:00:41;15.57;;;3.83;;
58196;SDS011;43999;51.660;5.616;2023-04-25T08:03:25;10.80;;;4.25;;
58196;SDS011;43999;51.660;5.616;2023-04-25T08:05:54;10.55;;;3.67;;
58196;SDS011;43999;51.660;5.616;2023-04-25T08:08:25;9.25;;;3.42;;
58196;SDS011;43999;51.660;5.616;2023-04-25T08:10:53;10.68;;;3.08;;
58196;SDS011;43999;51.660;5.616;2023-04-25T08:13:21;7.95;;;2.92;;
58196;SDS011;43999;51.660;5.616;2023-04-25T08:15:52;11.85;;;3.03;;
58196;SDS011;43999;51.660;5.616;2023-04-25T08:18:23;4.82;;;2.50;;
58196;SDS011;43999;51.660;5.616;2023-04-25T08:20:52;5.72;;;2.80;;
58196;SDS011;43999;51.660;5.616;2023-04-25T08:23:26;7.10;;;2.47;;
58196;SDS011;43999;51.660;5.616;2023-04-25T08:26:02;5.53;;;2.95;;
58196;SDS011;43999;51.660;5.616;2023-04-25T08:28:35;9.80;;;3.60;;
58196;SDS011;43999;51.660;5.616;2023-04-25T08:31:05;7.78;;;4.82;;
58196;SDS011;43999;51.660;5.616;2023-04-25T08:33:58;4.32;;;2.58;;
58196;SDS011;43999;51.660;5.616;2023-04-25T08:36:32;9.77;;;2.63;;
58196;SDS011;43999;51.660;5.616;2023-04-25T08:39:19;9.27;;;2.90;;
58196;SDS011;43999;51.660;5.616;2023-04-25T08:42:14;5.38;;;2.08;;
58196;SDS011;43999;51.660;5.616;2023-04-25T08:44:45;6.13;;;2.63;;
58196;SDS011;43999;51.660;5.616;2023-04-25T08:47:16;7.35;;;3.17;;
58196;SDS011;43999;51.660;5.616;2023-04-25T08:49:54;5.32;;;3.25;;
58196;SDS011;43999;51.660;5.616;2023-04-25T08:52:26;7.18;;;3.60;;
58196;SDS011;43999;51.660;5.616;2023-04-25T08:55:06;6.45;;;3.58;;
58196;SDS011;43999;51.660;5.616;2023-04-25T08:57:39;9.38;;;3.42;;
58196;SDS011;43999;51.660;5.616;2023-04-25T09:00:09;10.32;;;3.78;;
58196;SDS011;43999;51.660;5.616;2023-04-25T09:02:42;9.40;;;3.72;;
58196;SDS011;43999;51.660;5.616;2023-04-25T09:05:12;8.15;;;3.17;;
58196;SDS011;43999;51.660;5.616;2023-04-25T09:07:43;7.07;;;3.17;;
58196;SDS011;43999;51.660;5.616;2023-04-25T09:10:22;8.13;;;3.00;;
58196;SDS011;43999;51.660;5.616;2023-04-25T09:13:10;11.07;;;4.45;;
58196;SDS011;43999;51.660;5.616;2023-04-25T09:16:10;10.02;;;3.75;;
58196;SDS011;43999;51.660;5.616;2023-04-25T09:18:58;10.75;;;4.45;;
58196;SDS011;43999;51.660;5.616;2023-04-25T09:21:26;9.77;;;4.07;;
58196;SDS011;43999;51.660;5.616;2023-04-25T09:23:56;10.25;;;4.60;;
58196;SDS011;43999;51.660;5.616;2023-04-25T09:26:28;8.23;;;3.97;;
58196;SDS011;43999;51.660;5.616;2023-04-25T09:29:06;16.30;;;3.78;;
58196;SDS011;43999;51.660;5.616;2023-04-25T09:31:53;4.65;;;2.58;;
58196;SDS011;43999;51.660;5.616;2023-04-25T09:35:23;5.07;;;2.25;;
58196;SDS011;43999;51.660;5.616;2023-04-25T09:38:14;5.63;;;2.83;;
58196;SDS011;43999;51.660;5.616;2023-04-25T09:41:42;5.95;;;2.92;;
58196;SDS011;43999;51.660;5.616;2023-04-25T09:44:55;7.97;;;4.13;;
58196;SDS011;43999;51.660;5.616;2023-04-25T09:48:02;5.70;;;3.05;;
58196;SDS011;43999;51.660;5.616;2023-04-25T09:51:03;4.72;;;2.85;;
58196;SDS011;43999;51.660;5.616;2023-04-25T09:54:09;2.90;;;2.28;;
58196;SDS011;43999;51.660;5.616;2023-04-25T09:56:46;4.85;;;2.78;;
58196;SDS011;43999;51.660;5.616;2023-04-25T09:59:23;7.88;;;3.00;;
58196;SDS011;43999;51.660;5.616;2023-04-25T10:02:06;4.55;;;2.75;;
58196;SDS011;43999;51.660;5.616;2023-04-25T10:04:38;3.90;;;2.40;;
58196;SDS011;43999;51.660;5.616;2023-04-25T10:07:17;5.15;;;2.42;;
58196;SDS011;43999;51.660;5.616;2023-04-25T10:10:01;3.88;;;2.15;;
58196;SDS011;43999;51.660;5.616;2023-04-25T10:12:32;6.68;;;2.42;;
58196;SDS011;43999;51.660;5.616;2023-04-25T10:15:00;4.07;;;2.75;;
58196;SDS011;43999;51.660;5.616;2023-04-25T10:17:31;6.85;;;2.75;;
58196;SDS011;43999;51.660;5.616;2023-04-25T10:20:02;5.70;;;3.05;;
58196;SDS011;43999;51.660;5.616;2023-04-25T10:22:44;6.35;;;2.30;;
58196;SDS011;43999;51.660;5.616;2023-04-25T10:25:15;5.90;;;2.20;;
58196;SDS011;43999;51.660;5.616;2023-04-25T10:27:44;4.43;;;2.45;;
58196;SDS011;43999;51.660;5.616;2023-04-25T10:30:15;6.13;;;2.70;;
58196;SDS011;43999;51.660;5.616;2023-04-25T10:32:43;4.22;;;2.83;;
58196;SDS011;43999;51.660;5.616;2023-04-25T10:35:28;4.43;;;3.05;;
58196;SDS011;43999;51.660;5.616;2023-04-25T10:38:10;5.57;;;2.40;;
58196;SDS011;43999;51.660;5.616;2023-04-25T10:41:03;8.15;;;2.15;;
58196;SDS011;43999;51.660;5.616;2023-04-25T10:43:41;3.97;;;3.03;;
58196;SDS011;43999;51.660;5.616;2023-04-25T10:46:27;5.57;;;2.40;;
58196;SDS011;43999;51.660;5.616;2023-04-25T10:49:00;7.03;;;3.08;;
58196;SDS011;43999;51.660;5.616;2023-04-25T10:51:33;6.55;;;2.03;;
58196;SDS011;43999;51.660;5.616;2023-04-25T10:54:21;16.80;;;2.95;;
58196;SDS011;43999;51.660;5.616;2023-04-25T10:56:58;5.18;;;2.05;;
58196;SDS011;43999;51.660;5.616;2023-04-25T10:59:33;7.70;;;2.65;;
58196;SDS011;43999;51.660;5.616;2023-04-25T11:02:01;9.68;;;2.38;;
58196;SDS011;43999;51.660;5.616;2023-04-25T11:04:40;10.57;;;2.95;;
58196;SDS011;43999;51.660;5.616;2023-04-25T11:10:33;6.50;;;2.38;;
58196;SDS011;43999;51.660;5.616;2023-04-25T11:13:04;3.38;;;1.85;;
58196;SDS011;43999;51.660;5.616;2023-04-25T11:15:33;8.45;;;2.30;;
58196;SDS011;43999;51.660;5.616;2023-04-25T11:18:03;5.28;;;2.55;;
58196;SDS011;43999;51.660;5.616;2023-04-25T11:20:35;4.40;;;2.78;;
58196;SDS011;43999;51.660;5.616;2023-04-25T11:23:03;6.05;;;3.17;;
58196;SDS011;43999;51.660;5.616;2023-04-25T11:25:32;9.20;;;3.15;;
58196;SDS011;43999;51.660;5.616;2023-04-25T11:28:04;7.88;;;3.00;;
58196;SDS011;43999;51.660;5.616;2023-04-25T11:30:32;6.43;;;3.88;;
58196;SDS011;43999;51.660;5.616;2023-04-25T11:33:00;4.18;;;2.08;;
58196;SDS011;43999;51.660;5.616;2023-04-25T11:35:31;5.68;;;2.97;;
58196;SDS011;43999;51.660;5.616;2023-04-25T11:38:04;6.50;;;2.88;;
58196;SDS011;43999;51.660;5.616;2023-04-25T11:40:37;6.97;;;3.63;;
58196;SDS011;43999;51.660;5.616;2023-04-25T11:43:12;6.85;;;3.22;;
58196;SDS011;43999;51.660;5.616;2023-04-25T11:45:48;5.47;;;2.45;;
58196;SDS011;43999;51.660;5.616;2023-04-25T11:48:19;5.15;;;2.33;;
58196;SDS011;43999;51.660;5.616;2023-04-25T11:50:54;4.80;;;2.10;;
58196;SDS011;43999;51.660;5.616;2023-04-25T11:53:23;4.20;;;2.03;;
58196;SDS011;43999;51.660;5.616;2023-04-25T11:55:58;5.93;;;2.80;;
58196;SDS011;43999;51.660;5.616;2023-04-25T11:58:28;9.98;;;2.67;;
58196;SDS011;43999;51.660;5.616;2023-04-25T12:00:55;3.25;;;1.65;;
58196;SDS011;43999;51.660;5.616;2023-04-25T12:03:25;5.22;;;1.60;;
58196;SDS011;43999;51.660;5.616;2023-04-25T12:06:04;6.68;;;2.15;;
58196;SDS011;43999;51.660;5.616;2023-04-25T12:08:33;5.10;;;2.03;;
58196;SDS011;43999;51.660;5.616;2023-04-25T12:11:03;3.15;;;1.52;;
58196;SDS011;43999;51.660;5.616;2023-04-25T12:13:33;6.18;;;1.88;;
58196;SDS011;43999;51.660;5.616;2023-04-25T12:16:02;5.38;;;1.88;;
58196;SDS011;43999;51.660;5.616;2023-04-25T12:18:30;4.47;;;1.80;;
58196;SDS011;43999;51.660;5.616;2023-04-25T12:20:59;5.50;;;2.28;;
58196;SDS011;43999;51.660;5.616;2023-04-25T12:23:27;4.95;;;2.00;;
58196;SDS011;43999;51.660;5.616;2023-04-25T12:25:58;4.43;;;1.80;;
58196;SDS011;43999;51.660;5.616;2023-04-25T12:28:32;3.13;;;1.20;;
58196;SDS011;43999;51.660;5.616;2023-04-25T12:31:00;2.92;;;1.40;;
58196;SDS011;43999;51.660;5.616;2023-04-25T12:33:35;2.58;;;1.42;;
58196;SDS011;43999;51.660;5.616;2023-04-25T12:36:06;3.78;;;1.80;;
58196;SDS011;43999;51.660;5.616;2023-04-25T12:38:40;3.78;;;1.70;;
58196;SDS011;43999;51.660;5.616;2023-04-25T12:41:10;5.13;;;1.85;;
58196;SDS011;43999;51.660;5.616;2023-04-25T12:43:39;5.47;;;3.17;;
58196;SDS011;43999;51.660;5.616;2023-04-25T12:46:06;4.60;;;2.50;;
58196;SDS011;43999;51.660;5.616;2023-04-25T12:48:35;3.90;;;1.58;;
58196;SDS011;43999;51.660;5.616;2023-04-25T12:51:08;7.28;;;2.47;;
58196;SDS011;43999;51.660;5.616;2023-04-25T12:53:36;4.63;;;2.28;;
58196;SDS011;43999;51.660;5.616;2023-04-25T12:56:08;5.85;;;3.00;;
58196;SDS011;43999;51.660;5.616;2023-04-25T12:58:46;3.40;;;1.73;;
58196;SDS011;43999;51.660;5.616;2023-04-25T13:01:16;8.27;;;7.03;;
58196;SDS011;43999;51.660;5.616;2023-04-25T13:03:45;7.40;;;2.05;;
58196;SDS011;43999;51.660;5.616;2023-04-25T13:06:14;6.72;;;3.03;;
58196;SDS011;43999;51.660;5.616;2023-04-25T13:08:49;9.43;;;3.03;;
58196;SDS011;43999;51.660;5.616;2023-04-25T13:11:22;3.90;;;2.25;;
58196;SDS011;43999;51.660;5.616;2023-04-25T13:13:49;5.15;;;2.33;;
58196;SDS011;43999;51.660;5.616;2023-04-25T13:16:18;6.72;;;3.28;;
58196;SDS011;43999;51.660;5.616;2023-04-25T13:18:54;4.65;;;2.88;;
58196;SDS011;43999;51.660;5.616;2023-04-25T13:21:24;6.07;;;3.22;;
58196;SDS011;43999;51.660;5.616;2023-04-25T13:23:54;7.18;;;2.78;;
58196;SDS011;43999;51.660;5.616;2023-04-25T13:26:24;6.25;;;2.40;;
58196;SDS011;43999;51.660;5.616;2023-04-25T13:28:52;4.05;;;2.70;;
58196;SDS011;43999;51.660;5.616;2023-04-25T13:31:19;4.68;;;2.45;;
58196;SDS011;43999;51.660;5.616;2023-04-25T13:33:48;3.80;;;2.35;;
58196;SDS011;43999;51.660;5.616;2023-04-25T13:36:17;4.18;;;2.10;;
58196;SDS011;43999;51.660;5.616;2023-04-25T13:38:52;3.92;;;2.05;;
58196;SDS011;43999;51.660;5.616;2023-04-25T13:41:20;4.32;;;2.28;;
58196;SDS011;43999;51.660;5.616;2023-04-25T13:43:48;5.57;;;2.25;;
58196;SDS011;43999;51.660;5.616;2023-04-25T13:46:19;4.40;;;2.00;;
58196;SDS011;43999;51.660;5.616;2023-04-25T13:48:51;5.38;;;2.45;;
58196;SDS011;43999;51.660;5.616;2023-04-25T13:51:36;3.70;;;2.40;;
58196;SDS011;43999;51.660;5.616;2023-04-25T13:54:03;4.35;;;2.22;;
58196;SDS011;43999;51.660;5.616;2023-04-25T13:56:34;6.40;;;2.63;;
58196;SDS011;43999;51.660;5.616;2023-04-25T13:59:02;4.60;;;1.85;;
58196;SDS011;43999;51.660;5.616;2023-04-25T14:01:32;3.20;;;1.90;;
58196;SDS011;43999;51.660;5.616;2023-04-25T14:04:02;7.70;;;2.03;;
58196;SDS011;43999;51.660;5.616;2023-04-25T14:06:31;8.63;;;2.20;;
58196;SDS011;43999;51.660;5.616;2023-04-25T14:09:01;4.75;;;2.63;;
58196;SDS011;43999;51.660;5.616;2023-04-25T14:11:37;7.72;;;2.30;;
58196;SDS011;43999;51.660;5.616;2023-04-25T14:14:15;5.03;;;1.98;;
58196;SDS011;43999;51.660;5.616;2023-04-25T14:16:46;4.25;;;2.33;;
58196;SDS011;43999;51.660;5.616;2023-04-25T14:19:30;3.83;;;2.10;;
58196;SDS011;43999;51.660;5.616;2023-04-25T14:22:06;3.78;;;2.15;;
58196;SDS011;43999;51.660;5.616;2023-04-25T14:24:37;4.60;;;2.20;;
58196;SDS011;43999;51.660;5.616;2023-04-25T14:27:05;5.30;;;2.42;;
58196;SDS011;43999;51.660;5.616;2023-04-25T14:29:34;4.72;;;2.65;;
58196;SDS011;43999;51.660;5.616;2023-04-25T14:32:03;5.10;;;2.75;;
58196;SDS011;43999;51.660;5.616;2023-04-25T14:34:34;3.95;;;2.60;;
58196;SDS011;43999;51.660;5.616;2023-04-25T14:37:06;3.70;;;2.20;;
58196;SDS011;43999;51.660;5.616;2023-04-25T14:39:42;6.93;;;2.65;;
58196;SDS011;43999;51.660;5.616;2023-04-25T14:42:28;6.85;;;2.85;;
58196;SDS011;43999;51.660;5.616;2023-04-25T14:44:55;7.85;;;3.15;;
58196;SDS011;43999;51.660;5.616;2023-04-25T14:47:26;5.20;;;2.70;;
58196;SDS011;43999;51.660;5.616;2023-04-25T14:49:55;6.68;;;2.65;;
58196;SDS011;43999;51.660;5.616;2023-04-25T14:52:31;5.03;;;2.80;;
58196;SDS011;43999;51.660;5.616;2023-04-25T14:55:03;4.88;;;2.80;;
58196;SDS011;43999;51.660;5.616;2023-04-25T14:57:35;4.18;;;2.35;;
58196;SDS011;43999;51.660;5.616;2023-04-25T15:00:04;11.48;;;2.78;;
58196;SDS011;43999;51.660;5.616;2023-04-25T15:02:47;9.18;;;2.80;;
58196;SDS011;43999;51.660;5.616;2023-04-25T15:05:19;5.38;;;2.10;;
58196;SDS011;43999;51.660;5.616;2023-04-25T15:07:48;5.43;;;2.85;;
58196;SDS011;43999;51.660;5.616;2023-04-25T15:10:17;4.00;;;2.03;;
58196;SDS011;43999;51.660;5.616;2023-04-25T15:12:46;3.92;;;2.15;;
58196;SDS011;43999;51.660;5.616;2023-04-25T15:15:15;4.57;;;2.92;;
58196;SDS011;43999;51.660;5.616;2023-04-25T15:17:52;8.55;;;2.45;;
58196;SDS011;43999;51.660;5.616;2023-04-25T15:20:25;2.83;;;2.08;;
58196;SDS011;43999;51.660;5.616;2023-04-25T15:23:11;6.03;;;2.65;;
58196;SDS011;43999;51.660;5.616;2023-04-25T15:25:46;5.15;;;2.47;;
58196;SDS011;43999;51.660;5.616;2023-04-25T15:28:21;6.38;;;2.38;;